Time;durP1;ratioP1;P1;durP2;ratioP2;P2;SDS_P1;SDS_P2;PMS_P1;PMS_P2;Temp;Humidity;BMP_temperature;BMP_pressure;BME280_temperature;BME280_humidity;BME280_pressure;Samples;Min_cycle;Max_cycle;Signal;HPM_P1;HPM_P2
2022/10/26 00:00:46;;;;;;;;;5.00;3.50;;;;;18.55;81.92;100678.59;5055666;28;45757;-68
2022/10/26 00:03:11;;;;;;;;;3.75;3.75;;;;;18.76;80.96;100713.50;5044145;28;45479;-68
2022/10/26 00:05:37;;;;;;;;;2.75;2.75;;;;;18.58;80.11;100691.78;5054093;28;45674;-68
2022/10/26 00:08:03;;;;;;;;;3.25;3.25;;;;;18.70;80.39;100714.94;5054504;28;45988;-68
2022/10/26 00:10:29;;;;;;;;;3.75;3.75;;;;;18.36;80.37;100656.00;5054684;28;45425;-68
2022/10/26 00:12:54;;;;;;;;;4.00;2.50;;;;;18.61;79.49;100702.28;5055438;28;45433;-68
2022/10/26 00:15:20;;;;;;;;;4.75;3.00;;;;;18.69;79.22;100709.69;5055668;28;45383;-68
2022/10/26 00:17:46;;;;;;;;;4.50;4.50;;;;;18.45;79.04;100673.16;5055214;28;45272;-68
2022/10/26 00:20:13;;;;;;;;;3.00;3.00;;;;;18.52;78.93;100697.75;5054608;28;45309;-68
2022/10/26 00:22:38;;;;;;;;;1.75;1.75;;;;;18.59;79.15;100710.56;5052594;28;45370;-68
2022/10/26 00:25:05;;;;;;;;;3.00;3.00;;;;;18.57;78.32;100703.59;5055551;28;45338;-68
2022/10/26 00:27:33;;;;;;;;;2.00;2.00;;;;;18.15;78.68;100640.81;5055035;28;47059;-68
2022/10/26 00:29:58;;;;;;;;;2.00;2.00;;;;;18.55;78.66;100708.28;5055069;28;45454;-68
2022/10/26 00:32:24;;;;;;;;;2.50;2.00;;;;;18.56;78.50;100696.47;5055092;28;45372;-68
2022/10/26 00:34:49;;;;;;;;;2.00;2.00;;;;;18.55;78.40;100705.59;5054951;28;45581;-68
2022/10/26 00:37:14;;;;;;;;;2.75;2.75;;;;;17.91;77.98;100597.16;5053447;28;45734;-68
2022/10/26 00:39:39;;;;;;;;;1.00;1.00;;;;;18.49;77.45;100715.13;5055204;28;45402;-68
2022/10/26 00:42:05;;;;;;;;;3.00;3.00;;;;;18.42;77.60;100717.56;5054400;28;45516;-68
2022/10/26 00:44:45;;;;;;;;;2.25;2.25;;;;;18.42;77.65;100717.56;5054990;28;45311;-66
2022/10/26 00:47:35;;;;;;;;;3.25;3.25;;;;;18.43;77.94;100724.63;5048699;28;45469;-67
2022/10/26 00:50:13;;;;;;;;;3.00;3.00;;;;;18.44;77.80;100725.50;5045778;28;45369;-68
2022/10/26 00:52:40;;;;;;;;;3.50;3.50;;;;;18.42;77.31;100727.47;5054662;28;45306;-68
2022/10/26 00:55:07;;;;;;;;;6.00;6.00;;;;;18.32;78.13;100708.59;5055135;28;45630;-68
2022/10/26 00:57:34;;;;;;;;;6.00;4.75;;;;;18.41;77.88;100728.47;5053325;28;46776;-66
2022/10/26 01:00:00;;;;;;;;;5.50;5.50;;;;;18.37;77.69;100745.94;5054037;28;45424;-66
2022/10/26 01:02:26;;;;;;;;;8.00;6.50;;;;;18.37;78.05;100746.81;5053926;28;45473;-66
2022/10/26 01:04:54;;;;;;;;;3.50;3.50;;;;;18.22;78.35;100721.22;5054958;28;45281;-66
2022/10/26 01:07:19;;;;;;;;;6.00;5.00;;;;;18.34;77.51;100749.78;5053030;28;46479;-66
2022/10/26 01:09:45;;;;;;;;;7.25;5.00;;;;;18.28;77.57;100734.16;5054446;28;45740;-66
2022/10/26 01:12:10;;;;;;;;;4.75;4.00;;;;;17.99;77.52;100707.97;5054271;28;45362;-66
2022/10/26 01:14:37;;;;;;;;;9.00;5.00;;;;;18.38;77.46;100750.38;5048286;28;45621;-66
2022/10/26 01:17:20;;;;;;;;;7.00;5.00;;;;;18.38;77.07;100755.75;5034102;28;46166;-66
2022/10/26 01:19:56;;;;;;;;;7.75;5.00;;;;;18.37;77.79;100748.66;5033540;28;45389;-66
2022/10/26 01:22:50;;;;;;;;;6.00;6.00;;;;;18.39;77.75;100744.81;5034069;28;45418;-67
2022/10/26 01:25:24;;;;;;;;;7.00;5.00;;;;;18.40;77.56;100754.63;5034015;28;45307;-66
2022/10/26 01:27:51;;;;;;;;;6.75;6.00;;;;;18.40;77.34;100760.03;5036854;28;45341;-66
2022/10/26 01:30:38;;;;;;;;;4.00;4.00;;;;;18.34;77.14;100744.38;5037624;28;45503;-67
2022/10/26 01:33:15;;;;;;;;;5.50;5.25;;;;;18.42;77.20;100758.06;5037287;28;45412;-66
2022/10/26 01:36:10;;;;;;;;;4.75;4.75;;;;;18.38;77.23;100762.03;5037432;28;45441;-66
2022/10/26 01:38:46;;;;;;;;;3.00;2.75;;;;;18.40;76.75;100754.63;5033779;28;47427;-67
2022/10/26 01:41:27;;;;;;;;;3.00;3.00;;;;;18.41;77.04;100764.44;5037425;28;45492;-66
2022/10/26 01:43:58;;;;;;;;;5.50;4.75;;;;;18.15;77.27;100712.84;5037434;28;45420;-67
2022/10/26 01:46:26;;;;;;;;;1.00;1.00;;;;;18.35;77.31;100751.50;5044316;28;45492;-66
2022/10/26 01:48:57;;;;;;;;;4.00;3.00;;;;;18.35;77.40;100746.09;5056036;28;46872;-67
2022/10/26 01:51:24;;;;;;;;;2.75;2.75;;;;;17.19;76.91;100566.88;5057383;28;45231;-66
2022/10/26 01:53:49;;;;;;;;;1.50;1.50;;;;;18.43;76.97;100758.91;5039582;28;45416;-66
2022/10/26 01:56:24;;;;;;;;;2.00;2.00;;;;;18.32;77.10;100749.09;5057655;28;45393;-67
2022/10/26 01:59:08;;;;;;;;;2.25;2.25;;;;;18.48;77.27;100756.63;5056169;28;45666;-66
2022/10/26 02:01:45;;;;;;;;;2.75;2.75;;;;;18.51;76.53;100766.28;5059429;28;45406;-66
2022/10/26 02:04:13;;;;;;;;;2.25;2.00;;;;;18.51;76.41;100763.59;5076801;27;45457;-66
2022/10/26 02:06:51;;;;;;;;;3.00;3.00;;;;;18.52;77.04;100763.44;5077404;27;45401;-67
2022/10/26 02:09:44;;;;;;;;;4.00;2.00;;;;;18.50;76.39;100770.81;5077310;27;45704;-67
2022/10/26 02:12:21;;;;;;;;;1.50;1.50;;;;;18.44;76.52;100769.56;5077452;27;45413;-69
2022/10/26 02:14:59;;;;;;;;;1.00;1.00;;;;;18.39;76.85;100763.72;5075969;28;45358;-69
2022/10/26 02:17:36;;;;;;;;;2.25;2.25;;;;;18.52;76.84;100786.88;5077526;27;45685;-68
2022/10/26 02:20:07;;;;;;;;;2.00;2.00;;;;;18.52;76.65;100790.47;5069505;27;45679;-68
2022/10/26 02:22:37;;;;;;;;;2.75;2.75;;;;;18.54;76.84;100793.00;5035477;28;45383;-68
2022/10/26 02:25:14;;;;;;;;;2.00;2.00;;;;;18.57;76.64;100787.31;5036521;28;45403;-68
2022/10/26 02:27:46;;;;;;;;;0.75;0.75;;;;;17.95;76.83;100679.56;5019041;28;45737;-68
2022/10/26 02:30:12;;;;;;;;;2.50;2.50;;;;;18.62;76.47;100790.47;5036944;28;45397;-68
2022/10/26 02:32:44;;;;;;;;;2.00;2.00;;;;;18.20;76.57;100720.53;5036839;28;45402;-68
2022/10/26 02:35:12;;;;;;;;;1.75;1.75;;;;;18.63;76.01;100800.28;5036610;28;45350;-68
2022/10/26 02:37:39;;;;;;;;;4.00;3.00;;;;;18.64;76.16;100812.78;5034806;28;45379;-67
2022/10/26 02:40:11;;;;;;;;;2.00;2.00;;;;;18.52;76.32;100778.78;5035793;28;45702;-67
2022/10/26 02:42:41;;;;;;;;;1.75;1.75;;;;;18.66;76.19;100814.34;5036580;28;45395;-68
2022/10/26 02:45:10;;;;;;;;;2.00;2.00;;;;;18.34;76.20;100749.78;5035217;28;45371;-67
2022/10/26 02:47:35;;;;;;;;;1.50;1.50;;;;;18.72;75.92;100807.53;5036596;28;45568;-68
2022/10/26 02:50:01;;;;;;;;;2.00;2.00;;;;;18.44;76.05;100758.75;5035968;28;45891;-68
2022/10/26 02:52:32;;;;;;;;;3.75;2.00;;;;;18.75;75.60;100799.13;5036665;28;45681;-68
2022/10/26 02:55:10;;;;;;;;;1.00;1.00;;;;;18.75;76.23;100801.81;5036203;28;45420;-67
2022/10/26 02:57:39;;;;;;;;;1.25;1.00;;;;;18.47;75.73;100761.16;5042303;28;45377;-67
2022/10/26 03:00:16;;;;;;;;;2.75;1.75;;;;;18.34;75.63;100725.47;5056131;28;46888;-67
2022/10/26 03:02:44;;;;;;;;;2.50;2.50;;;;;18.73;75.57;100803.81;5056054;28;45248;-67
2022/10/26 03:05:18;;;;;;;;;2.00;2.00;;;;;18.64;76.02;100777.66;5056274;28;45251;-67
2022/10/26 03:07:43;;;;;;;;;2.00;2.00;;;;;18.76;75.85;100792.72;5056104;28;45378;-67
2022/10/26 03:10:09;;;;;;;;;3.00;3.00;;;;;17.58;75.54;100604.69;5056221;28;46086;-67
2022/10/26 03:12:35;;;;;;;;;1.00;1.00;;;;;18.70;75.97;100787.06;5056486;28;45420;-67
2022/10/26 03:15:00;;;;;;;;;2.50;2.50;;;;;18.36;75.14;100739.72;5054682;28;45501;-68
2022/10/26 03:17:25;;;;;;;;;1.75;1.75;;;;;18.79;75.69;100803.25;5056071;28;45675;-67
2022/10/26 03:19:51;;;;;;;;;3.00;2.00;;;;;18.81;75.46;100812.06;5056348;28;45477;-67
2022/10/26 03:22:16;;;;;;;;;1.00;1.00;;;;;18.78;75.16;100814.19;5055889;28;45837;-67
2022/10/26 03:24:41;;;;;;;;;3.25;2.00;;;;;18.77;75.02;100812.50;5071830;28;45759;-67
2022/10/26 03:27:07;;;;;;;;;1.00;1.00;;;;;18.76;75.64;100819.75;5056127;28;45371;-67
2022/10/26 03:29:32;;;;;;;;;3.25;2.00;;;;;18.75;75.36;100818.03;5055685;28;46280;-68
2022/10/26 03:31:57;;;;;;;;;1.00;1.00;;;;;18.72;75.58;100818.34;5055810;28;45342;-68
2022/10/26 03:34:23;;;;;;;;;2.50;2.50;;;;;18.72;75.44;100820.16;5056007;28;45724;-68
2022/10/26 03:36:48;;;;;;;;;3.00;2.00;;;;;18.75;75.64;100826.16;5055930;28;45492;-67
2022/10/26 03:39:13;;;;;;;;;2.00;2.00;;;;;18.62;75.27;100806.66;5055378;28;47347;-67
2022/10/26 03:41:39;;;;;;;;;2.00;2.00;;;;;18.61;75.28;100813.94;5056320;28;45405;-67
2022/10/26 03:44:04;;;;;;;;;0.67;0.67;;;;;18.43;75.35;100811.06;5056463;28;45352;-67
2022/10/26 03:46:29;;;;;;;;;1.25;1.25;;;;;18.60;75.65;100844.63;5054767;28;45563;-68
2022/10/26 03:48:55;;;;;;;;;2.00;2.00;;;;;18.56;75.22;100855.84;5054398;28;47469;-68
2022/10/26 03:51:20;;;;;;;;;2.67;2.00;;;;;18.11;75.65;100785.16;5055441;28;45330;-67
2022/10/26 03:53:45;;;;;;;;;2.00;2.00;;;;;18.41;75.98;100858.09;5055818;28;45743;-68
2022/10/26 03:56:11;;;;;;;;;1.00;1.00;;;;;18.42;76.27;100859.81;5055933;28;45378;-68
2022/10/26 03:58:36;;;;;;;;;4.25;3.00;;;;;18.37;76.67;100872.88;5055439;28;45426;-68
2022/10/26 04:01:01;;;;;;;;;2.00;2.00;;;;;18.39;76.63;100879.00;5055171;28;45330;-68
2022/10/26 04:03:27;;;;;;;;;4.00;2.00;;;;;18.36;76.74;100873.88;5055588;28;45400;-68
2022/10/26 04:05:52;;;;;;;;;1.00;1.00;;;;;18.31;76.94;100867.06;5055606;28;45354;-68
2022/10/26 04:08:17;;;;;;;;;4.00;2.00;;;;;18.33;76.98;100873.16;5053962;28;46154;-68
2022/10/26 04:10:44;;;;;;;;;1.75;1.75;;;;;18.01;76.97;100819.38;5055573;28;45331;-68
2022/10/26 04:13:10;;;;;;;;;2.25;2.25;;;;;18.28;77.18;100880.81;5055135;28;45389;-68
2022/10/26 04:15:36;;;;;;;;;4.00;2.25;;;;;18.26;77.27;100887.34;5035607;28;45392;-68
2022/10/26 04:18:02;;;;;;;;;1.50;1.50;;;;;18.24;77.67;100898.28;5035252;28;47353;-68
2022/10/26 04:20:29;;;;;;;;;2.33;1.00;;;;;18.23;77.50;100899.25;5035277;28;45380;-68
2022/10/26 04:22:59;;;;;;;;;4.00;2.00;;;;;18.20;77.69;100898.72;5035277;28;45399;-68
2022/10/26 04:25:24;;;;;;;;;3.00;1.67;;;;;18.20;77.51;100891.44;5035195;28;45510;-66
2022/10/26 04:27:50;;;;;;;;;2.50;2.50;;;;;18.19;77.74;100897.00;5034949;28;45422;-68
2022/10/26 04:30:15;;;;;;;;;0.75;0.75;;;;;18.16;77.44;100904.34;5034887;28;45468;-68
2022/10/26 04:32:41;;;;;;;;;2.00;2.00;;;;;18.18;77.63;100911.47;5034174;28;45497;-67
2022/10/26 04:35:06;;;;;;;;;2.75;1.00;;;;;17.98;77.63;100881.72;5033688;28;45343;-68
2022/10/26 04:37:32;;;;;;;;;3.00;2.00;;;;;18.15;77.62;100923.38;5034636;28;45722;-68
2022/10/26 04:39:58;;;;;;;;;2.75;2.75;;;;;18.20;77.56;100920.31;5034990;28;45765;-67
2022/10/26 04:42:23;;;;;;;;;2.50;2.50;;;;;18.21;77.46;100922.03;5034653;28;45449;-67
2022/10/26 04:44:48;;;;;;;;;1.50;1.50;;;;;18.16;77.32;100935.91;5034411;28;45570;-67
2022/10/26 04:47:14;;;;;;;;;2.00;2.00;;;;;17.95;77.61;100908.94;5034526;28;46236;-68
2022/10/26 04:49:39;;;;;;;;;3.00;3.00;;;;;17.73;77.27;100875.72;5034488;28;45326;-67
2022/10/26 04:52:05;;;;;;;;;1.75;1.75;;;;;18.14;77.70;100954.94;5034900;28;45389;-68
2022/10/26 04:54:30;;;;;;;;;1.50;1.50;;;;;18.12;77.58;100959.59;5035049;28;45358;-67
2022/10/26 04:56:56;;;;;;;;;1.50;1.25;;;;;18.11;77.72;100954.34;5034450;28;47118;-67
2022/10/26 04:59:21;;;;;;;;;1.75;1.25;;;;;18.12;77.66;100961.47;5034625;28;45289;-67
2022/10/26 05:01:46;;;;;;;;;3.00;1.75;;;;;18.13;77.68;100969.44;5041235;28;45297;-67
2022/10/26 05:04:12;;;;;;;;;1.75;1.75;;;;;18.16;77.56;100973.69;5058009;28;45322;-67
2022/10/26 05:06:37;;;;;;;;;0.50;0.50;;;;;18.15;77.55;100970.16;5057395;28;47548;-67
2022/10/26 05:09:03;;;;;;;;;4.00;1.00;;;;;18.15;77.58;100966.59;5058094;28;45356;-67
2022/10/26 05:11:28;;;;;;;;;2.75;2.75;;;;;18.14;77.43;100979.25;5057095;28;45545;-67
2022/10/26 05:13:53;;;;;;;;;3.00;1.33;;;;;18.14;77.38;100973.00;5058016;28;45378;-67
2022/10/26 05:16:19;;;;;;;;;1.67;1.67;;;;;17.83;77.56;100925.22;5057928;28;45454;-67
2022/10/26 05:18:47;;;;;;;;;2.00;1.00;;;;;18.05;77.40;100974.66;5039796;28;45307;-67
2022/10/26 05:21:18;;;;;;;;;3.50;2.00;;;;;18.07;77.57;100990.69;5058262;28;45302;-67
2022/10/26 05:23:43;;;;;;;;;1.50;1.50;;;;;18.09;78.25;100984.19;5057963;28;45465;-68
2022/10/26 05:26:08;;;;;;;;;1.00;1.00;;;;;18.06;77.82;100989.84;5057714;28;45575;-68
2022/10/26 05:28:34;;;;;;;;;1.33;1.33;;;;;17.94;78.27;100985.53;5057993;28;45502;-70
2022/10/26 05:30:59;;;;;;;;;1.00;1.00;;;;;18.02;78.28;100999.22;5058059;28;45278;-68
2022/10/26 05:33:25;;;;;;;;;2.00;2.00;;;;;18.01;78.33;100999.34;5058213;28;45464;-68
2022/10/26 05:35:53;;;;;;;;;3.00;1.00;;;;;18.01;78.53;101002.91;5058017;28;46407;-69
2022/10/26 05:38:19;;;;;;;;;2.00;2.00;;;;;18.03;78.44;101011.72;5057829;28;45393;-67
2022/10/26 05:40:51;;;;;;;;;2.00;2.00;;;;;17.24;78.62;100906.97;5057935;28;45254;-67
2022/10/26 05:43:17;;;;;;;;;2.00;1.75;;;;;17.92;78.97;101001.00;5042327;28;45726;-67
2022/10/26 05:45:42;;;;;;;;;2.67;1.00;;;;;17.80;79.19;100994.75;5037496;28;46309;-67
2022/10/26 05:48:08;;;;;;;;;2.00;1.00;;;;;17.92;79.44;101018.06;5045511;28;45391;-67
2022/10/26 05:50:33;;;;;;;;;1.00;0.00;;;;;17.95;79.25;101020.47;5058037;28;45397;-67
2022/10/26 05:52:59;;;;;;;;;6.50;3.00;;;;;17.15;79.26;100893.28;5057158;28;45521;-67
2022/10/26 05:55:25;;;;;;;;;5.00;4.00;;;;;17.92;79.57;101023.44;5057450;28;45427;-67
2022/10/26 05:57:50;;;;;;;;;0.33;0.33;;;;;17.92;79.64;101025.28;5056501;28;45429;-67
2022/10/26 06:00:17;;;;;;;;;1.50;0.50;;;;;17.91;79.42;101029.81;5073052;28;45386;-67
2022/10/26 06:03:19;;;;;;;;;1.00;1.00;;;;;17.06;79.72;100899.44;5057189;28;45373;-67
2022/10/26 06:05:58;;;;;;;;;0.00;0.00;;;;;17.97;79.38;101031.13;5056169;28;48236;-67
2022/10/26 06:08:26;;;;;;;;;1.00;1.00;;;;;17.95;79.24;101041.19;5057257;28;45445;-67
2022/10/26 06:10:53;;;;;;;;;2.25;2.25;;;;;17.97;79.29;101039.25;5056211;28;45406;-67
2022/10/26 06:13:18;;;;;;;;;2.75;2.50;;;;;17.55;79.31;100967.22;5057329;28;45438;-67
2022/10/26 06:16:01;;;;;;;;;1.00;1.00;;;;;18.02;78.99;101039.69;5057315;28;47066;-67
2022/10/26 06:18:40;;;;;;;;;2.00;2.00;;;;;17.58;78.70;100963.41;5047469;28;46304;-67
2022/10/26 06:21:14;;;;;;;;;0.75;0.75;;;;;18.03;78.58;101044.13;5046887;28;45481;-67
2022/10/26 06:23:42;;;;;;;;;2.00;1.75;;;;;18.04;79.21;101045.81;5036467;28;45434;-67
2022/10/26 06:26:25;;;;;;;;;2.25;1.00;;;;;18.04;78.39;101055.75;5036162;28;46193;-67
2022/10/26 06:29:28;;;;;;;;;2.00;1.00;;;;;18.02;78.69;101055.91;5052086;28;45464;-67
2022/10/26 06:31:53;;;;;;;;;1.50;1.50;;;;;17.99;78.27;101057.00;5036566;28;45430;-67
2022/10/26 06:34:44;;;;;;;;;3.75;2.75;;;;;17.95;78.65;101058.25;5036854;28;45593;-68
2022/10/26 06:37:10;;;;;;;;;0.00;0.00;;;;;17.95;78.58;101063.66;5036870;28;45741;-67
2022/10/26 06:39:38;;;;;;;;;1.50;1.50;;;;;17.95;78.15;101073.59;5036676;28;45529;-67
2022/10/26 06:42:04;;;;;;;;;1.75;1.75;;;;;17.96;78.21;101078.88;5036632;28;45444;-67
2022/10/26 06:44:30;;;;;;;;;2.50;1.50;;;;;17.77;78.43;101051.69;5036793;28;45398;-67
2022/10/26 06:47:16;;;;;;;;;3.50;2.75;;;;;17.88;78.20;101083.16;5036798;28;46347;-67
2022/10/26 06:49:54;;;;;;;;;2.00;1.00;;;;;17.88;78.47;101088.56;5036915;28;45398;-67
2022/10/26 06:52:32;;;;;;;;;1.00;1.00;;;;;17.86;78.41;101096.78;5036612;28;45427;-67
2022/10/26 06:54:58;;;;;;;;;2.25;2.25;;;;;17.53;78.18;101051.94;5036379;28;45413;-67
2022/10/26 06:57:31;;;;;;;;;2.67;2.00;;;;;17.88;78.36;101112.84;5036508;28;45463;-66
2022/10/26 07:00:00;;;;;;;;;1.50;1.50;;;;;17.43;78.31;101052.69;5036721;28;45517;-66
2022/10/26 07:02:25;;;;;;;;;1.75;1.75;;;;;17.92;78.26;101122.44;5047562;28;45314;-67
2022/10/26 07:04:50;;;;;;;;;1.00;1.00;;;;;17.93;78.13;101137.63;5056613;28;45397;-67
2022/10/26 07:07:21;;;;;;;;;3.75;2.00;;;;;17.93;78.38;101135.78;5056868;28;45387;-67
2022/10/26 07:09:47;;;;;;;;;2.50;2.50;;;;;17.99;78.29;101137.09;5055687;28;45484;-67
2022/10/26 07:12:12;;;;;;;;;3.25;2.25;;;;;17.95;78.17;101141.06;5056700;28;45390;-67
2022/10/26 07:14:38;;;;;;;;;4.25;3.25;;;;;17.98;78.00;101143.50;5046764;28;45505;-67
2022/10/26 07:17:03;;;;;;;;;2.75;1.50;;;;;17.93;77.98;101149.28;5045617;28;46557;-66
2022/10/26 07:19:29;;;;;;;;;2.75;2.00;;;;;17.95;78.39;101149.16;5044900;28;45794;-66
2022/10/26 07:21:55;;;;;;;;;1.50;1.50;;;;;17.87;78.16;101140.81;5041820;28;45559;-67
2022/10/26 07:24:22;;;;;;;;;2.00;2.00;;;;;17.98;78.30;101148.91;5045030;28;45323;-67
2022/10/26 07:26:47;;;;;;;;;2.50;1.00;;;;;17.94;78.02;101163.66;5047803;28;46656;-67
2022/10/26 07:29:15;;;;;;;;;2.25;2.00;;;;;17.33;78.36;101073.34;5042617;28;45484;-66
2022/10/26 07:31:40;;;;;;;;;1.25;1.25;;;;;17.95;78.71;101176.13;5043714;28;45438;-66
2022/10/26 07:34:06;;;;;;;;;1.50;0.50;;;;;17.97;78.49;101188.53;5044991;28;45338;-66
2022/10/26 07:36:31;;;;;;;;;0.67;0.00;;;;;17.95;78.53;101184.22;5044013;28;45963;-66
2022/10/26 07:38:56;;;;;;;;;2.00;2.00;;;;;17.95;78.27;101192.31;5043254;28;45828;-68
2022/10/26 07:41:22;;;;;;;;;2.50;1.50;;;;;17.99;78.73;101191.09;5045703;28;45429;-67
2022/10/26 07:43:49;;;;;;;;;4.75;3.25;;;;;17.68;78.00;101147.78;5044500;28;45358;-66
2022/10/26 07:46:15;;;;;;;;;1.00;1.00;;;;;18.11;78.05;101200.88;5042013;28;45792;-65
2022/10/26 07:48:41;;;;;;;;;3.50;2.50;;;;;18.13;77.93;101206.16;5045561;28;45433;-66
2022/10/26 07:51:07;;;;;;;;;2.00;2.00;;;;;17.93;77.90;101172.72;5044401;28;45323;-66
2022/10/26 07:53:32;;;;;;;;;2.75;2.00;;;;;18.18;78.11;101216.53;5043861;28;45335;-65
2022/10/26 07:55:57;;;;;;;;;3.00;1.75;;;;;18.19;77.87;101216.41;5045312;28;46118;-65
2022/10/26 07:58:25;;;;;;;;;2.75;2.00;;;;;18.24;77.95;101224.13;5046369;28;45333;-66
2022/10/26 08:00:51;;;;;;;;;4.00;3.00;;;;;18.29;77.90;101228.16;5044665;28;45351;-66
2022/10/26 08:03:17;;;;;;;;;2.00;1.00;;;;;18.23;77.79;101220.56;5045428;28;45499;-66
2022/10/26 08:05:46;;;;;;;;;3.00;2.00;;;;;18.38;77.62;101226.53;5045721;28;45568;-66
2022/10/26 08:08:12;;;;;;;;;2.75;2.00;;;;;17.94;76.63;101139.38;5044382;28;45429;-66
2022/10/26 08:10:41;;;;;;;;;4.33;2.67;;;;;18.46;76.68;101226.75;5044332;28;45364;-66
2022/10/26 08:13:06;;;;;;;;;3.00;2.00;;;;;18.54;76.93;101236.03;5045667;28;45398;-66
2022/10/26 08:15:32;;;;;;;;;1.50;1.50;;;;;18.64;76.74;101234.25;5046678;28;46066;-67
2022/10/26 08:17:57;;;;;;;;;1.75;1.00;;;;;18.24;76.13;101170.97;5041132;28;45450;-66
2022/10/26 08:20:23;;;;;;;;;3.25;2.00;;;;;18.86;75.96;101241.34;5043316;28;45434;-65
2022/10/26 08:22:48;;;;;;;;;4.25;3.00;;;;;18.96;75.55;101245.00;5061114;28;45531;-66
2022/10/26 08:25:13;;;;;;;;;2.67;1.33;;;;;19.10;75.40;101242.97;5044491;28;46648;-66
2022/10/26 08:27:39;;;;;;;;;3.00;2.00;;;;;19.17;74.91;101250.38;5042727;28;45371;-66
2022/10/26 08:30:05;;;;;;;;;1.33;1.33;;;;;19.29;74.01;101255.72;5048436;28;45404;-66
2022/10/26 08:32:30;;;;;;;;;1.00;1.00;;;;;19.41;74.06;101246.50;5044156;28;45534;-67
2022/10/26 08:34:55;;;;;;;;;1.50;1.50;;;;;19.68;73.56;101253.16;5045332;28;46981;-67
2022/10/26 08:37:21;;;;;;;;;5.00;3.75;;;;;19.94;70.43;101218.31;5050592;28;45412;-67
2022/10/26 08:39:47;;;;;;;;;1.50;1.50;;;;;22.18;63.68;101199.56;5055675;28;45363;-67
2022/10/26 08:42:18;;;;;;;;;1.00;1.00;;;;;23.76;59.51;101259.41;5070589;28;45305;-67
2022/10/26 08:44:47;;;;;;;;;1.00;1.00;;;;;23.34;59.13;101262.97;5045887;28;46539;-67
2022/10/26 08:47:19;;;;;;;;;1.00;1.00;;;;;23.00;60.96;101264.63;5044038;28;45422;-67
2022/10/26 08:49:59;;;;;;;;;1.75;1.75;;;;;22.80;60.40;101263.97;5044766;28;45481;-67
2022/10/26 08:52:38;;;;;;;;;1.00;0.67;;;;;22.36;60.77;101190.56;5044467;28;45572;-67
2022/10/26 08:55:13;;;;;;;;;1.50;1.50;;;;;22.04;62.16;101246.31;5044244;28;46468;-68
2022/10/26 08:57:40;;;;;;;;;1.33;1.00;;;;;21.67;63.06;101241.81;5043871;28;45408;-68
2022/10/26 09:00:17;;;;;;;;;2.67;2.67;;;;;22.42;61.40;101265.16;5042754;28;45757;-67
2022/10/26 09:02:43;;;;;;;;;4.00;1.00;;;;;22.13;61.97;101244.50;5054932;28;45366;-69
2022/10/26 09:05:22;;;;;;;;;2.00;1.00;;;;;22.14;63.41;101293.25;5054656;28;46165;-67
2022/10/26 09:07:50;;;;;;;;;2.00;1.00;;;;;22.39;63.39;101295.38;5054843;28;45396;-67
2022/10/26 09:10:18;;;;;;;;;1.00;1.00;;;;;22.47;62.73;101299.06;5053682;28;45312;-66
2022/10/26 09:12:56;;;;;;;;;0.67;0.67;;;;;22.34;60.81;101288.56;5054943;28;45435;-68
2022/10/26 09:15:44;;;;;;;;;2.67;2.00;;;;;21.76;61.88;101219.19;5054624;28;45401;-70
2022/10/26 09:18:47;;;;;;;;;2.67;0.00;;;;;22.76;60.96;101292.50;5054800;28;45370;-66
2022/10/26 09:21:33;;;;;;;;;2.67;1.00;;;;;23.00;59.65;101222.97;5039263;28;45620;-67
2022/10/26 09:24:30;;;;;;;;;0.67;0.00;;;;;23.15;59.48;101299.44;5054388;28;45505;-67
2022/10/26 09:27:17;;;;;;;;;1.00;1.00;;;;;22.99;60.70;101314.59;5054255;28;46601;-68
2022/10/26 09:29:42;;;;;;;;;0.67;0.67;;;;;23.30;60.10;101313.31;5053020;28;45330;-68
2022/10/26 09:32:20;;;;;;;;;0.00;0.00;;;;;23.75;58.75;101314.03;5053326;28;45393;-68
2022/10/26 09:34:52;;;;;;;;;1.00;1.00;;;;;23.28;58.30;101239.13;5054391;28;45524;-68
2022/10/26 09:38:10;;;;;;;;;2.33;1.00;;;;;24.98;54.86;101336.13;5054211;28;46308;-68
2022/10/26 09:40:47;;;;;;;;;0.00;0.00;;;;;27.65;48.45;101325.13;5004133;28;45483;-68
2022/10/26 09:43:23;;;;;;;;;0.00;0.00;;;;;28.68;45.88;101322.31;5012035;28;45359;-67
2022/10/26 09:45:51;;;;;;;;;1.00;1.00;;;;;29.58;44.17;101333.59;5012323;28;45552;-68
2022/10/26 09:48:50;;;;;;;;;1.00;1.00;;;;;29.27;41.75;101306.56;5014196;28;45829;-67
2022/10/26 09:51:16;;;;;;;;;0.00;0.00;;;;;28.35;43.33;101276.19;5017062;28;45432;-68
2022/10/26 09:53:41;;;;;;;;;1.00;1.00;;;;;28.04;44.48;101321.22;5017750;28;45670;-71
2022/10/26 09:56:12;;;;;;;;;0.33;0.00;;;;;27.33;44.87;101329.91;5016906;28;45443;-68
2022/10/26 09:58:58;;;;;;;;;1.00;0.00;;;;;26.88;48.07;101329.84;4998772;28;47122;-68
2022/10/26 10:01:31;;;;;;;;;0.00;0.00;;;;;26.88;49.47;101329.84;5012942;28;45288;-67
2022/10/26 10:04:11;;;;;;;;;0.00;0.00;;;;;26.76;48.83;101343.09;4995424;28;45441;-68
2022/10/26 10:06:37;;;;;;;;;1.67;1.00;;;;;26.30;48.64;101321.19;4995713;28;45433;-68
2022/10/26 10:09:09;;;;;;;;;2.00;0.33;;;;;26.46;49.46;101345.69;4995265;28;45486;-67
2022/10/26 10:11:55;;;;;;;;;1.25;1.00;;;;;26.56;49.09;101353.66;4978967;28;45447;-67
2022/10/26 10:14:30;;;;;;;;;0.00;0.00;;;;;26.38;49.60;101362.16;4995284;28;45403;-68
2022/10/26 10:17:01;;;;;;;;;0.00;0.00;;;;;25.91;49.57;101344.75;5021725;28;45609;-67
2022/10/26 10:19:30;;;;;;;;;2.00;0.67;;;;;26.00;50.82;101362.00;5037037;28;45978;-66
2022/10/26 10:22:00;;;;;;;;;0.33;0.33;;;;;25.03;49.70;101229.16;5036977;28;45300;-67
2022/10/26 10:24:35;;;;;;;;;0.00;0.00;;;;;25.74;50.33;101376.78;5037049;28;45433;-66
2022/10/26 10:27:03;;;;;;;;;0.33;0.00;;;;;25.52;49.78;101368.31;5036988;28;45390;-67
2022/10/26 10:29:32;;;;;;;;;0.00;0.00;;;;;25.23;49.70;101365.28;5037167;28;45528;-67
2022/10/26 10:32:02;;;;;;;;;0.00;0.00;;;;;25.13;51.65;101371.75;5036851;28;45453;-67
2022/10/26 10:34:32;;;;;;;;;0.00;0.00;;;;;25.07;51.50;101379.78;5037323;28;45233;-67
2022/10/26 10:36:59;;;;;;;;;0.00;0.00;;;;;24.81;51.93;101343.44;5052424;28;45386;-67
2022/10/26 10:39:36;;;;;;;;;0.00;0.00;;;;;24.98;52.92;101377.06;5052204;28;45903;-65
2022/10/26 10:42:03;;;;;;;;;2.00;1.00;;;;;24.75;51.94;101385.03;5036874;28;45455;-66
2022/10/26 10:44:31;;;;;;;;;1.67;0.00;;;;;24.74;53.80;101396.13;5036974;28;45296;-66
2022/10/26 10:47:05;;;;;;;;;0.00;0.00;;;;;24.71;53.26;101380.94;5037164;28;45488;-66
2022/10/26 10:49:32;;;;;;;;;2.00;1.00;;;;;24.68;52.42;101381.28;5036751;28;46217;-66
2022/10/26 10:51:58;;;;;;;;;0.00;0.00;;;;;24.67;52.37;101387.75;5037198;28;45386;-66
2022/10/26 10:54:31;;;;;;;;;0.00;0.00;;;;;24.68;54.15;101392.19;5037206;28;45739;-66
2022/10/26 10:57:12;;;;;;;;;1.00;1.00;;;;;24.73;53.65;101378.91;5036950;28;45517;-66
2022/10/26 10:59:51;;;;;;;;;0.33;0.00;;;;;24.73;53.83;101372.63;5035585;28;46659;-66
2022/10/26 11:02:57;;;;;;;;;0.00;0.00;;;;;24.81;52.71;101389.00;5055659;28;45496;-66
2022/10/26 11:05:46;;;;;;;;;0.00;0.00;;;;;24.83;52.54;101393.25;5034466;28;45467;-66
2022/10/26 11:08:27;;;;;;;;;0.00;0.00;;;;;24.94;52.54;101396.66;5017463;28;45393;-67
2022/10/26 11:11:01;;;;;;;;;0.00;0.00;;;;;24.82;51.76;101399.72;5034005;28;45421;-67
2022/10/26 11:13:33;;;;;;;;;0.00;0.00;;;;;24.49;53.47;101356.00;5017521;28;45414;-66
2022/10/26 11:16:02;;;;;;;;;0.33;0.33;;;;;24.87;51.98;101376.53;5034194;28;45399;-66
2022/10/26 11:18:35;;;;;;;;;2.33;0.00;;;;;25.02;51.17;101396.66;5033821;28;45533;-67
2022/10/26 11:21:19;;;;;;;;;2.00;1.00;;;;;25.13;52.08;101404.50;5030681;28;45795;-66
2022/10/26 11:23:51;;;;;;;;;0.00;0.00;;;;;24.92;52.18;101365.97;5012567;28;45502;-66
2022/10/26 11:26:20;;;;;;;;;0.00;0.00;;;;;25.28;52.04;101406.53;5013959;28;45442;-66
2022/10/26 11:28:52;;;;;;;;;0.00;0.00;;;;;25.40;51.83;101407.94;5013609;28;45343;-66
2022/10/26 11:31:24;;;;;;;;;0.00;0.00;;;;;25.56;50.60;101417.13;5013083;28;46448;-67
2022/10/26 11:34:04;;;;;;;;;1.00;1.00;;;;;25.69;50.88;101409.25;5012986;28;45462;-66
2022/10/26 11:36:34;;;;;;;;;0.00;0.00;;;;;25.62;50.23;101372.72;5003175;28;45265;-67
2022/10/26 11:39:26;;;;;;;;;0.00;0.00;;;;;25.84;50.51;101407.47;5000522;28;45440;-66